Time;durP1;ratioP1;P1;durP2;ratioP2;P2;SDS_P1;SDS_P2;PMS_P1;PMS_P2;Temp;Humidity;BMP_temperature;BMP_pressure;BME280_temperature;BME280_humidity;BME280_pressure;Samples;Min_cycle;Max_cycle;Signal;HPM_P1;HPM_P2
2022/03/05 00:01:22;;;;;;;19.52;10.90;;;;;;;;;;5091526;28;20079;-58
2022/03/05 00:03:48;;;;;;;17.77;9.82;;;;;;;;;;5090766;28;20039;-58
2022/03/05 00:06:14;;;;;;;17.40;10.75;;;;;;;;;;5090271;28;20028;-58
2022/03/05 00:08:40;;;;;;;19.42;10.45;;;;;;;;;;5088566;28;20040;-57
2022/03/05 00:11:06;;;;;;;19.88;10.38;;;;;;;;;;5089984;28;20135;-58
2022/03/05 00:13:32;;;;;;;19.95;11.05;;;;;;;;;;5090883;28;20166;-58
2022/03/05 00:15:58;;;;;;;21.50;10.20;;;;;;;;;;5090476;28;20044;-58
2022/03/05 00:18:24;;;;;;;21.00;10.32;;;;;;;;;;5089655;28;20110;-58
2022/03/05 00:20:51;;;;;;;18.85;10.38;;;;;;;;;;5091551;28;20147;-58
2022/03/05 00:23:18;;;;;;;20.02;10.63;;;;;;;;;;5090080;28;20055;-58
2022/03/05 00:25:44;;;;;;;19.45;10.45;;;;;;;;;;5089077;28;20043;-58
2022/03/05 00:28:10;;;;;;;20.48;10.73;;;;;;;;;;5090488;28;20125;-58
2022/03/05 00:30:36;;;;;;;19.23;11.05;;;;;;;;;;5090373;28;20047;-58
2022/03/05 00:33:02;;;;;;;21.67;11.02;;;;;;;;;;5088834;28;20040;-57
2022/03/05 00:35:29;;;;;;;20.92;10.77;;;;;;;;;;5091948;28;20431;-58
2022/03/05 00:37:55;;;;;;;20.60;10.75;;;;;;;;;;5093135;28;20097;-58
2022/03/05 00:40:21;;;;;;;21.50;11.18;;;;;;;;;;5094603;28;20040;-58
2022/03/05 00:42:48;;;;;;;18.60;10.48;;;;;;;;;;5095102;28;20043;-59
2022/03/05 00:45:14;;;;;;;18.77;10.73;;;;;;;;;;5094247;28;20504;-58
2022/03/05 00:47:40;;;;;;;17.48;9.52;;;;;;;;;;5092539;28;20478;-58
2022/03/05 00:50:07;;;;;;;17.98;10.45;;;;;;;;;;5093792;28;20039;-58
2022/03/05 00:52:33;;;;;;;19.40;10.35;;;;;;;;;;5094896;28;20040;-58
2022/03/05 00:54:59;;;;;;;19.27;10.38;;;;;;;;;;5094037;28;20063;-58
2022/03/05 00:57:25;;;;;;;22.48;11.30;;;;;;;;;;5094303;28;20043;-58
2022/03/05 00:59:51;;;;;;;18.70;10.30;;;;;;;;;;5093861;28;20085;-57
2022/03/05 01:02:17;;;;;;;21.65;10.32;;;;;;;;;;5093960;28;20032;-57
2022/03/05 01:04:43;;;;;;;19.27;10.50;;;;;;;;;;5094216;28;20036;-58
2022/03/05 01:07:09;;;;;;;19.10;10.07;;;;;;;;;;5094836;28;20170;-58
2022/03/05 01:09:35;;;;;;;21.42;11.02;;;;;;;;;;5093968;28;20036;-58
2022/03/05 01:12:01;;;;;;;17.17;9.68;;;;;;;;;;5093583;28;20130;-58
2022/03/05 01:14:27;;;;;;;19.17;10.15;;;;;;;;;;5093424;28;20031;-58
2022/03/05 01:16:53;;;;;;;19.73;10.18;;;;;;;;;;5094068;28;20098;-58
2022/03/05 01:19:19;;;;;;;20.25;10.60;;;;;;;;;;5093048;28;20485;-58
2022/03/05 01:21:45;;;;;;;18.73;10.55;;;;;;;;;;5092199;28;20058;-58
2022/03/05 01:24:11;;;;;;;20.58;10.95;;;;;;;;;;5093177;28;20052;-58
2022/03/05 01:26:37;;;;;;;20.90;9.82;;;;;;;;;;5092352;28;20036;-58
2022/03/05 01:29:03;;;;;;;18.52;10.07;;;;;;;;;;5092767;28;20383;-58
2022/03/05 01:31:29;;;;;;;19.98;10.55;;;;;;;;;;5093729;28;20028;-58
2022/03/05 01:33:55;;;;;;;18.52;10.65;;;;;;;;;;5092320;28;20080;-58
2022/03/05 01:36:21;;;;;;;22.45;11.05;;;;;;;;;;5093826;28;20044;-58
2022/03/05 01:38:47;;;;;;;19.25;9.45;;;;;;;;;;5091038;28;20043;-58
2022/03/05 01:41:13;;;;;;;18.15;9.95;;;;;;;;;;5093097;28;20451;-58
2022/03/05 01:43:39;;;;;;;16.35;9.68;;;;;;;;;;5093542;28;20032;-58
2022/03/05 01:46:05;;;;;;;18.80;9.63;;;;;;;;;;5093389;28;20481;-58
2022/03/05 01:48:30;;;;;;;17.27;9.63;;;;;;;;;;5092837;28;20040;-58
2022/03/05 01:50:56;;;;;;;18.85;10.05;;;;;;;;;;5080947;28;20401;-58
2022/03/05 01:53:22;;;;;;;21.67;10.02;;;;;;;;;;5093236;28;20447;-57
2022/03/05 01:55:48;;;;;;;21.38;10.38;;;;;;;;;;5093248;28;20036;-58
2022/03/05 01:58:15;;;;;;;18.02;8.85;;;;;;;;;;5092836;28;20124;-58
2022/03/05 02:00:41;;;;;;;16.43;9.43;;;;;;;;;;5092560;28;20036;-58
2022/03/05 02:03:07;;;;;;;16.80;9.55;;;;;;;;;;5092295;28;20097;-57
2022/03/05 02:05:33;;;;;;;18.85;9.93;;;;;;;;;;5093041;28;20081;-58
2022/03/05 02:07:59;;;;;;;20.08;9.50;;;;;;;;;;5092826;28;20072;-57
2022/03/05 02:10:25;;;;;;;19.03;10.17;;;;;;;;;;5092425;28;20037;-57
2022/03/05 02:12:50;;;;;;;18.17;9.07;;;;;;;;;;5092334;28;20036;-58
2022/03/05 02:15:16;;;;;;;19.77;10.32;;;;;;;;;;5092175;28;20036;-58
2022/03/05 02:17:43;;;;;;;16.87;9.53;;;;;;;;;;5092227;28;20085;-58
2022/03/05 02:20:09;;;;;;;18.60;9.43;;;;;;;;;;5092039;28;20089;-58
2022/03/05 02:22:35;;;;;;;16.33;9.17;;;;;;;;;;5092170;28;20040;-58
2022/03/05 02:25:03;;;;;;;20.60;9.23;;;;;;;;;;5093146;28;20040;-58
2022/03/05 02:27:29;;;;;;;20.03;9.83;;;;;;;;;;5091922;28;20101;-58
2022/03/05 02:29:55;;;;;;;17.23;9.38;;;;;;;;;;5091621;28;20036;-57
2022/03/05 02:32:21;;;;;;;16.87;8.50;;;;;;;;;;5092316;28;20094;-58
2022/03/05 02:34:47;;;;;;;17.30;8.30;;;;;;;;;;5091466;28;20509;-57
2022/03/05 02:37:15;;;;;;;17.63;9.37;;;;;;;;;;5092402;28;20497;-58
2022/03/05 02:39:41;;;;;;;15.57;8.30;;;;;;;;;;5091673;28;20122;-58
2022/03/05 02:42:07;;;;;;;18.65;8.48;;;;;;;;;;5092848;28;20040;-58
2022/03/05 02:44:33;;;;;;;14.80;8.57;;;;;;;;;;5091383;28;20028;-58
2022/03/05 02:46:59;;;;;;;20.42;9.63;;;;;;;;;;5093322;28;20040;-58
2022/03/05 02:49:26;;;;;;;16.17;9.13;;;;;;;;;;5092450;28;20039;-58
2022/03/05 02:51:52;;;;;;;17.55;9.13;;;;;;;;;;5091393;28;20500;-58
2022/03/05 02:54:18;;;;;;;14.90;8.60;;;;;;;;;;5091945;28;20130;-58
2022/03/05 02:56:44;;;;;;;19.55;8.75;;;;;;;;;;5091968;28;20525;-57
2022/03/05 02:59:10;;;;;;;15.85;8.13;;;;;;;;;;5089668;28;20044;-57
2022/03/05 03:01:36;;;;;;;19.63;8.97;;;;;;;;;;5086571;28;20041;-58
2022/03/05 03:04:02;;;;;;;18.73;9.33;;;;;;;;;;5090520;28;20032;-58
2022/03/05 03:06:28;;;;;;;17.85;8.77;;;;;;;;;;5092112;28;20063;-58
2022/03/05 03:08:54;;;;;;;18.87;9.07;;;;;;;;;;5091554;28;20055;-57
2022/03/05 03:11:20;;;;;;;16.80;8.90;;;;;;;;;;5090451;28;20195;-58
2022/03/05 03:13:46;;;;;;;17.60;9.07;;;;;;;;;;5091428;28;20040;-57
2022/03/05 03:16:12;;;;;;;16.10;8.87;;;;;;;;;;5091116;28;20036;-58
2022/03/05 03:18:38;;;;;;;16.97;9.27;;;;;;;;;;5091560;28;20047;-58
2022/03/05 03:21:04;;;;;;;16.83;8.57;;;;;;;;;;5090754;28;20093;-57
2022/03/05 03:23:30;;;;;;;15.60;8.70;;;;;;;;;;5091389;28;20115;-58
2022/03/05 03:25:56;;;;;;;18.57;9.43;;;;;;;;;;5090786;28;20039;-58
2022/03/05 03:28:22;;;;;;;16.57;8.43;;;;;;;;;;5090398;28;20030;-58
2022/03/05 03:30:48;;;;;;;18.30;8.57;;;;;;;;;;5091315;28;20079;-58
2022/03/05 03:33:14;;;;;;;17.80;8.73;;;;;;;;;;5091291;28;20044;-58
2022/03/05 03:35:40;;;;;;;18.20;9.53;;;;;;;;;;5091714;28;20054;-58
2022/03/05 03:38:06;;;;;;;18.20;9.20;;;;;;;;;;5091271;28;20052;-57
2022/03/05 03:40:32;;;;;;;17.40;8.73;;;;;;;;;;5094613;28;20406;-58
2022/03/05 03:42:58;;;;;;;16.67;8.13;;;;;;;;;;5090631;28;20157;-58
2022/03/05 03:45:24;;;;;;;15.77;8.23;;;;;;;;;;5091819;28;20048;-58
2022/03/05 03:47:51;;;;;;;16.40;8.70;;;;;;;;;;5090983;28;20024;-58
2022/03/05 03:50:18;;;;;;;16.67;8.40;;;;;;;;;;5087129;28;20082;-58
2022/03/05 03:52:44;;;;;;;19.20;9.20;;;;;;;;;;5083478;28;20497;-58
2022/03/05 03:55:11;;;;;;;19.07;8.97;;;;;;;;;;5089497;28;20040;-58
2022/03/05 03:57:39;;;;;;;20.43;9.30;;;;;;;;;;5091072;28;20097;-58
2022/03/05 04:00:05;;;;;;;18.93;9.40;;;;;;;;;;5090442;28;20040;-57
2022/03/05 04:02:31;;;;;;;17.47;9.47;;;;;;;;;;5087275;28;20052;-58
2022/03/05 04:04:57;;;;;;;19.07;9.23;;;;;;;;;;5088167;28;20554;-58
2022/03/05 04:10:08;;;;;;;20.80;9.23;;;;;;;;;;5090692;28;20516;-58
2022/03/05 04:12:35;;;;;;;20.20;9.47;;;;;;;;;;5094621;28;20105;-59
2022/03/05 04:15:01;;;;;;;16.90;8.70;;;;;;;;;;5095108;28;20115;-58
2022/03/05 04:17:27;;;;;;;19.13;8.73;;;;;;;;;;5095324;28;20076;-58
2022/03/05 04:19:53;;;;;;;19.77;10.20;;;;;;;;;;5095005;28;20115;-58
2022/03/05 04:22:19;;;;;;;21.60;9.10;;;;;;;;;;5094742;28;20039;-58
2022/03/05 04:24:45;;;;;;;19.37;9.30;;;;;;;;;;5094750;28;20088;-58
2022/03/05 04:27:11;;;;;;;21.10;9.13;;;;;;;;;;5084902;28;20036;-58
2022/03/05 04:29:38;;;;;;;19.73;8.93;;;;;;;;;;5086253;28;20038;-58
2022/03/05 04:32:04;;;;;;;18.53;8.93;;;;;;;;;;5093627;28;20074;-58
2022/03/05 04:34:30;;;;;;;17.10;8.70;;;;;;;;;;5091272;28;20502;-57
2022/03/05 04:36:56;;;;;;;18.57;9.03;;;;;;;;;;5094839;28;20048;-58
2022/03/05 04:39:22;;;;;;;16.57;8.33;;;;;;;;;;5093866;28;20047;-58
2022/03/05 04:41:48;;;;;;;14.60;7.70;;;;;;;;;;5094039;28;20040;-58
2022/03/05 04:44:14;;;;;;;16.50;7.70;;;;;;;;;;5095128;28;20101;-57
2022/03/05 04:46:40;;;;;;;17.27;8.17;;;;;;;;;;5094786;28;20032;-58
2022/03/05 04:49:06;;;;;;;16.83;8.47;;;;;;;;;;5093757;28;20040;-58
2022/03/05 04:51:32;;;;;;;18.60;8.60;;;;;;;;;;5094320;28;20039;-58
2022/03/05 04:53:58;;;;;;;18.83;8.80;;;;;;;;;;5094784;28;20093;-58
2022/03/05 04:56:24;;;;;;;19.93;8.90;;;;;;;;;;5093933;28;20486;-58
2022/03/05 04:58:50;;;;;;;19.00;8.67;;;;;;;;;;5094928;28;20101;-58
2022/03/05 05:01:18;;;;;;;19.57;8.93;;;;;;;;;;5094123;28;20503;-57
2022/03/05 05:03:44;;;;;;;18.53;9.23;;;;;;;;;;5104568;28;20442;-58
2022/03/05 05:06:11;;;;;;;19.53;8.50;;;;;;;;;;5092752;28;20040;-58
2022/03/05 05:11:14;;;;;;;17.63;9.07;;;;;;;;;;5072178;28;20052;-58
2022/03/05 05:13:40;;;;;;;18.57;8.73;;;;;;;;;;5073826;28;20119;-58
2022/03/05 05:16:06;;;;;;;20.80;9.60;;;;;;;;;;5074576;28;20120;-58
2022/03/05 05:18:33;;;;;;;17.47;9.50;;;;;;;;;;5073366;28;20509;-58
2022/03/05 05:20:59;;;;;;;19.63;10.00;;;;;;;;;;5053405;28;20049;-58
2022/03/05 05:23:25;;;;;;;18.73;9.53;;;;;;;;;;5052977;28;20402;-58
2022/03/05 05:25:51;;;;;;;20.93;10.40;;;;;;;;;;5054318;28;20033;-58
2022/03/05 05:28:17;;;;;;;21.27;9.70;;;;;;;;;;5053858;28;20060;-58
2022/03/05 05:30:43;;;;;;;20.93;9.43;;;;;;;;;;5051816;28;20482;-58
2022/03/05 05:33:09;;;;;;;18.27;9.20;;;;;;;;;;5052515;28;20037;-58
2022/03/05 05:35:35;;;;;;;21.47;9.77;;;;;;;;;;5053705;28;20118;-58
2022/03/05 05:38:01;;;;;;;17.77;9.20;;;;;;;;;;5051116;28;20045;-58
2022/03/05 05:40:27;;;;;;;19.10;8.97;;;;;;;;;;5049223;28;20044;-58
2022/03/05 05:42:53;;;;;;;20.47;9.83;;;;;;;;;;5052348;28;20095;-59
2022/03/05 05:45:19;;;;;;;19.70;9.20;;;;;;;;;;5053977;28;20037;-58
2022/03/05 05:47:45;;;;;;;18.70;9.87;;;;;;;;;;5052284;28;20116;-58
2022/03/05 05:50:11;;;;;;;20.10;9.77;;;;;;;;;;5053043;28;20489;-58
2022/03/05 05:52:38;;;;;;;19.00;9.73;;;;;;;;;;5052864;28;20037;-58
2022/03/05 05:55:04;;;;;;;21.00;9.57;;;;;;;;;;5052940;28;20116;-58
2022/03/05 05:57:30;;;;;;;20.47;9.40;;;;;;;;;;5052465;28;20455;-58
2022/03/05 05:59:56;;;;;;;18.33;8.80;;;;;;;;;;5053581;28;20084;-58
2022/03/05 06:02:23;;;;;;;16.93;9.30;;;;;;;;;;5052765;28;20163;-58
2022/03/05 06:04:49;;;;;;;18.90;9.57;;;;;;;;;;5052732;28;20563;-58
2022/03/05 06:07:15;;;;;;;18.60;8.97;;;;;;;;;;5052596;28;20151;-58
2022/03/05 06:09:41;;;;;;;18.30;9.40;;;;;;;;;;5052002;28;20413;-58
2022/03/05 06:12:07;;;;;;;17.33;8.00;;;;;;;;;;5052428;28;20402;-58
2022/03/05 06:14:33;;;;;;;17.17;7.87;;;;;;;;;;5053004;28;20033;-58
2022/03/05 06:16:59;;;;;;;17.37;8.47;;;;;;;;;;5052199;28;20159;-58
2022/03/05 06:19:25;;;;;;;18.10;8.10;;;;;;;;;;5052789;28;20122;-58
2022/03/05 06:21:51;;;;;;;17.33;8.33;;;;;;;;;;5052120;28;20037;-58
2022/03/05 06:24:17;;;;;;;16.50;8.80;;;;;;;;;;5052347;28;20036;-58
2022/03/05 06:26:43;;;;;;;14.07;7.83;;;;;;;;;;5053042;28;20041;-58
2022/03/05 06:29:09;;;;;;;16.73;8.27;;;;;;;;;;5051262;28;20033;-58
2022/03/05 06:31:35;;;;;;;15.53;7.87;;;;;;;;;;5052732;28;20033;-58
2022/03/05 06:34:01;;;;;;;17.10;8.10;;;;;;;;;;5051171;28;20040;-58
2022/03/05 06:36:28;;;;;;;14.40;8.10;;;;;;;;;;5051876;28;20036;-59
2022/03/05 06:38:54;;;;;;;15.67;8.37;;;;;;;;;;5051679;28;20076;-58
2022/03/05 06:41:20;;;;;;;16.57;8.50;;;;;;;;;;5052700;28;20098;-58
2022/03/05 06:43:46;;;;;;;18.97;8.70;;;;;;;;;;5052409;28;20041;-58
2022/03/05 06:46:12;;;;;;;15.43;7.97;;;;;;;;;;5051355;28;20064;-58
2022/03/05 06:48:37;;;;;;;15.70;7.87;;;;;;;;;;5051461;28;20048;-58
2022/03/05 06:51:03;;;;;;;15.47;7.47;;;;;;;;;;5052394;28;20048;-58
2022/03/05 06:53:29;;;;;;;15.83;7.37;;;;;;;;;;5051809;28;20040;-58
2022/03/05 06:55:55;;;;;;;18.90;8.20;;;;;;;;;;5051915;28;20044;-58
2022/03/05 06:58:21;;;;;;;19.23;8.73;;;;;;;;;;5051476;28;20102;-58
2022/03/05 07:00:47;;;;;;;17.40;7.93;;;;;;;;;;5050914;28;20410;-58
2022/03/05 07:03:13;;;;;;;18.30;8.73;;;;;;;;;;5050914;28;20049;-58
2022/03/05 07:05:39;;;;;;;17.00;8.50;;;;;;;;;;5051585;28;20175;-58
2022/03/05 07:08:05;;;;;;;18.77;8.40;;;;;;;;;;5051974;28;20051;-58
2022/03/05 07:10:31;;;;;;;18.27;9.00;;;;;;;;;;5051231;28;20116;-58
2022/03/05 07:12:57;;;;;;;16.93;8.83;;;;;;;;;;5051492;28;20036;-59
2022/03/05 07:15:23;;;;;;;20.93;9.47;;;;;;;;;;5051934;28;20124;-58
2022/03/05 07:17:50;;;;;;;17.50;8.87;;;;;;;;;;5050230;28;20037;-58
2022/03/05 07:20:16;;;;;;;16.43;8.90;;;;;;;;;;5052211;28;20098;-59
2022/03/05 07:22:42;;;;;;;19.30;9.13;;;;;;;;;;5051177;28;20041;-58
2022/03/05 07:25:08;;;;;;;18.30;9.07;;;;;;;;;;5051133;28;20076;-58
2022/03/05 07:27:34;;;;;;;19.37;9.33;;;;;;;;;;5050891;28;20116;-58
2022/03/05 07:30:01;;;;;;;18.73;9.30;;;;;;;;;;5050719;28;20128;-58
2022/03/05 07:32:26;;;;;;;19.67;9.73;;;;;;;;;;5050469;28;20029;-58
2022/03/05 07:34:52;;;;;;;22.20;10.20;;;;;;;;;;5051401;28;20040;-58
2022/03/05 07:37:18;;;;;;;21.77;11.13;;;;;;;;;;5051269;28;20062;-58
2022/03/05 07:39:44;;;;;;;19.97;10.53;;;;;;;;;;5048165;28;20056;-58
2022/03/05 07:42:10;;;;;;;18.67;9.77;;;;;;;;;;5045864;28;20083;-58
2022/03/05 07:44:36;;;;;;;18.60;10.30;;;;;;;;;;5050132;28;20068;-58
2022/03/05 07:47:02;;;;;;;23.07;10.50;;;;;;;;;;5050801;28;20048;-58
2022/03/05 07:49:28;;;;;;;25.30;11.60;;;;;;;;;;5049113;28;20482;-58
2022/03/05 07:51:56;;;;;;;16.40;9.75;;;;;;;;;;5045608;28;20069;-58
2022/03/05 07:54:23;;;;;;;25.27;11.30;;;;;;;;;;5045589;28;20041;-58
2022/03/05 07:56:49;;;;;;;24.77;13.03;;;;;;;;;;5042867;28;20056;-58
2022/03/05 07:59:15;;;;;;;24.17;11.93;;;;;;;;;;5050397;28;20494;-58
2022/03/05 08:01:41;;;;;;;27.03;14.20;;;;;;;;;;5050483;28;20561;-59
2022/03/05 08:04:07;;;;;;;26.97;14.40;;;;;;;;;;5049534;28;20120;-58
2022/03/05 08:06:33;;;;;;;22.57;11.40;;;;;;;;;;5049071;28;20124;-58
2022/03/05 08:08:59;;;;;;;23.73;11.90;;;;;;;;;;5047788;28;20187;-58
2022/03/05 08:11:25;;;;;;;28.10;15.43;;;;;;;;;;5047150;28;20036;-58
2022/03/05 08:13:51;;;;;;;23.17;11.47;;;;;;;;;;5049347;28;20120;-58
2022/03/05 08:16:17;;;;;;;24.17;12.38;;;;;;;;;;5048645;28;20179;-58
2022/03/05 08:18:43;;;;;;;25.37;12.60;;;;;;;;;;5044382;28;20419;-58
2022/03/05 08:21:09;;;;;;;22.27;10.63;;;;;;;;;;5051317;28;20052;-58
2022/03/05 08:23:35;;;;;;;24.67;12.30;;;;;;;;;;5051495;28;20041;-58
2022/03/05 08:26:02;;;;;;;24.93;11.93;;;;;;;;;;5050551;28;20043;-58
2022/03/05 08:28:28;;;;;;;25.08;11.88;;;;;;;;;;5050989;28;20471;-58
2022/03/05 08:30:53;;;;;;;25.27;11.85;;;;;;;;;;5041489;28;20115;-58
2022/03/05 08:33:21;;;;;;;23.88;9.88;;;;;;;;;;5042406;28;20033;-58
2022/03/05 08:35:47;;;;;;;25.35;12.32;;;;;;;;;;5043022;28;20418;-58
2022/03/05 08:38:14;;;;;;;23.40;11.38;;;;;;;;;;5041679;28;20037;-58
2022/03/05 08:40:40;;;;;;;25.08;12.63;;;;;;;;;;5041014;28;20056;-58
2022/03/05 08:43:06;;;;;;;25.73;12.93;;;;;;;;;;5041343;28;20276;-58
2022/03/05 08:45:32;;;;;;;27.05;12.50;;;;;;;;;;5031716;28;20599;-58
2022/03/05 08:47:58;;;;;;;25.10;11.75;;;;;;;;;;5030625;28;20360;-58
2022/03/05 08:50:24;;;;;;;28.40;12.20;;;;;;;;;;5034403;28;20461;-58
2022/03/05 08:52:50;;;;;;;28.38;12.70;;;;;;;;;;5040313;28;20033;-58
2022/03/05 08:55:19;;;;;;;26.38;12.38;;;;;;;;;;5041060;28;20533;-58
2022/03/05 08:57:45;;;;;;;26.15;12.48;;;;;;;;;;5043839;28;20399;-58
2022/03/05 09:00:13;;;;;;;21.50;11.55;;;;;;;;;;5047105;28;20048;-58
2022/03/05 09:02:39;;;;;;;23.40;12.88;;;;;;;;;;5048465;28;21599;-58
2022/03/05 09:05:05;;;;;;;24.98;12.10;;;;;;;;;;5039905;28;20072;-58
2022/03/05 09:07:31;;;;;;;26.00;13.02;;;;;;;;;;5042478;28;20044;-58
2022/03/05 09:09:57;;;;;;;22.90;11.68;;;;;;;;;;5049928;28;20063;-58
2022/03/05 09:12:23;;;;;;;26.45;12.88;;;;;;;;;;5047037;28;20098;-58
2022/03/05 09:14:49;;;;;;;30.70;12.90;;;;;;;;;;5052542;28;20522;-58
2022/03/05 09:17:16;;;;;;;30.25;14.07;;;;;;;;;;5054011;28;20032;-58
2022/03/05 09:19:42;;;;;;;28.42;13.05;;;;;;;;;;5044875;28;20529;-58
2022/03/05 09:22:09;;;;;;;29.02;13.73;;;;;;;;;;5045399;28;20037;-58
2022/03/05 09:24:36;;;;;;;37.47;14.63;;;;;;;;;;5043150;28;20139;-59
2022/03/05 09:27:02;;;;;;;30.80;13.88;;;;;;;;;;5045198;28;20040;-58
2022/03/05 09:29:28;;;;;;;28.77;14.05;;;;;;;;;;5049248;28;20043;-59
2022/03/05 09:31:55;;;;;;;29.05;12.82;;;;;;;;;;5049919;28;20033;-58
2022/03/05 09:34:20;;;;;;;26.70;12.80;;;;;;;;;;5040821;28;20045;-58
2022/03/05 09:36:46;;;;;;;28.42;14.00;;;;;;;;;;5046324;28;20409;-58
2022/03/05 09:39:12;;;;;;;28.00;13.48;;;;;;;;;;5043900;28;20651;-58
2022/03/05 09:41:39;;;;;;;27.75;13.80;;;;;;;;;;5047569;28;20068;-58
2022/03/05 09:44:05;;;;;;;29.02;13.57;;;;;;;;;;5048798;28;20077;-58
2022/03/05 09:46:31;;;;;;;32.05;14.07;;;;;;;;;;5048043;28;20029;-58
2022/03/05 09:48:58;;;;;;;29.45;14.63;;;;;;;;;;5043252;28;20392;-58
2022/03/05 09:51:24;;;;;;;30.88;14.77;;;;;;;;;;5044974;28;20045;-58
2022/03/05 09:53:54;;;;;;;30.13;14.10;;;;;;;;;;5044116;28;20033;-58
2022/03/05 09:56:20;;;;;;;34.15;14.18;;;;;;;;;;5049618;28;20045;-58
2022/03/05 09:58:47;;;;;;;29.88;13.35;;;;;;;;;;5050462;28;20045;-58
2022/03/05 10:01:13;;;;;;;32.72;14.15;;;;;;;;;;5052778;28;20046;-58
2022/03/05 10:03:43;;;;;;;30.00;14.63;;;;;;;;;;5053087;28;20039;-58
2022/03/05 10:06:16;;;;;;;29.33;14.45;;;;;;;;;;5053114;28;20047;-58
2022/03/05 10:08:42;;;;;;;27.55;14.18;;;;;;;;;;5052861;28;20126;-59
2022/03/05 10:11:11;;;;;;;29.95;14.40;;;;;;;;;;5048446;28;20128;-58
2022/03/05 10:13:38;;;;;;;29.50;14.57;;;;;;;;;;5049631;28;20047;-58
2022/03/05 10:16:05;;;;;;;29.13;14.60;;;;;;;;;;5051369;28;20564;-58
2022/03/05 10:18:33;;;;;;;33.03;15.05;;;;;;;;;;5051461;28;20040;-58
2022/03/05 10:21:00;;;;;;;30.05;14.20;;;;;;;;;;5050155;28;20098;-58
2022/03/05 10:23:26;;;;;;;28.95;14.00;;;;;;;;;;5051814;28;20037;-58
2022/03/05 10:25:54;;;;;;;30.48;13.55;;;;;;;;;;5038648;28;20047;-58
2022/03/05 10:28:21;;;;;;;29.00;14.13;;;;;;;;;;5051247;28;20083;-59
2022/03/05 10:30:51;;;;;;;30.98;14.77;;;;;;;;;;5052044;28;20495;-59
2022/03/05 10:33:31;;;;;;;31.35;14.70;;;;;;;;;;5052942;28;20037;-59
2022/03/05 10:35:59;;;;;;;33.58;14.15;;;;;;;;;;5051645;28;20040;-59
2022/03/05 10:38:41;;;;;;;31.95;14.88;;;;;;;;;;5051037;28;20048;-59
2022/03/05 10:41:07;;;;;;;32.08;15.38;;;;;;;;;;5043163;28;20372;-59
2022/03/05 10:43:33;;;;;;;32.58;14.82;;;;;;;;;;5049767;28;20449;-59
2022/03/05 10:45:59;;;;;;;32.30;13.70;;;;;;;;;;5050088;28;20402;-59
2022/03/05 10:48:25;;;;;;;31.13;14.23;;;;;;;;;;5050905;28;20029;-59
2022/03/05 10:51:04;;;;;;;34.10;15.27;;;;;;;;;;5048120;28;20091;-58
2022/03/05 10:53:37;;;;;;;31.60;13.82;;;;;;;;;;5046991;28;20391;-59
2022/03/05 10:56:20;;;;;;;31.35;14.38;;;;;;;;;;5050110;28;20045;-58
2022/03/05 10:58:56;;;;;;;30.83;14.73;;;;;;;;;;5044217;28;20044;-58
2022/03/05 11:01:22;;;;;;;29.67;14.25;;;;;;;;;;5043295;28;20033;-59
2022/03/05 11:03:50;;;;;;;29.50;14.43;;;;;;;;;;5043691;28;20047;-58
2022/03/05 11:06:16;;;;;;;32.38;15.63;;;;;;;;;;5045837;28;20128;-58
2022/03/05 11:08:42;;;;;;;28.35;14.40;;;;;;;;;;5042757;28;20487;-59
2022/03/05 11:11:08;;;;;;;29.83;14.15;;;;;;;;;;5085160;22;20048;-57
2022/03/05 11:13:34;;;;;;;34.60;15.00;;;;;;;;;;5089509;28;20120;-58
2022/03/05 11:16:02;;;;;;;32.35;14.82;;;;;;;;;;5093470;28;20047;-58
2022/03/05 11:18:28;;;;;;;31.45;14.93;;;;;;;;;;5080324;28;20055;-58
2022/03/05 11:20:55;;;;;;;33.65;14.50;;;;;;;;;;5070940;28;20072;-57
2022/03/05 11:23:21;;;;;;;31.60;15.30;;;;;;;;;;5068155;28;20577;-58
2022/03/05 11:25:47;;;;;;;36.40;15.98;;;;;;;;;;5088266;28;20035;-58
2022/03/05 11:28:19;;;;;;;33.95;15.45;;;;;;;;;;5085465;28;20070;-57
2022/03/05 11:30:45;;;;;;;32.58;15.88;;;;;;;;;;5086298;28;20115;-57
2022/03/05 11:33:22;;;;;;;29.85;15.00;;;;;;;;;;5088792;28;20336;-58
2022/03/05 11:35:48;;;;;;;31.63;15.00;;;;;;;;;;5069282;28;20052;-58
2022/03/05 11:38:33;;;;;;;31.48;14.60;;;;;;;;;;5072533;28;20554;-58
2022/03/05 11:41:00;;;;;;;30.40;15.52;;;;;;;;;;5085987;28;20378;-57
2022/03/05 11:43:26;;;;;;;34.17;15.68;;;;;;;;;;5086631;28;20079;-58
2022/03/05 11:45:58;;;;;;;32.78;16.08;;;;;;;;;;5092467;28;20059;-58
2022/03/05 11:48:24;;;;;;;30.63;15.00;;;;;;;;;;5085316;28;20517;-58
2022/03/05 11:50:50;;;;;;;32.08;15.40;;;;;;;;;;5086970;28;20035;-57
2022/03/05 11:53:17;;;;;;;30.02;15.45;;;;;;;;;;5085534;28;20048;-57
2022/03/05 11:55:44;;;;;;;31.40;16.00;;;;;;;;;;5081919;28;20032;-58
2022/03/05 11:58:13;;;;;;;29.98;14.35;;;;;;;;;;5069481;28;20101;-58
2022/03/05 12:00:51;;;;;;;32.60;15.38;;;;;;;;;;5089189;28;20040;-58
2022/03/05 12:03:38;;;;;;;32.78;15.73;;;;;;;;;;5091496;28;20048;-58
2022/03/05 12:06:04;;;;;;;32.17;15.90;;;;;;;;;;5084491;28;20038;-57
2022/03/05 12:08:30;;;;;;;31.10;15.20;;;;;;;;;;5079849;28;20490;-58
2022/03/05 12:11:14;;;;;;;35.08;15.55;;;;;;;;;;5081704;28;20032;-57
2022/03/05 12:13:41;;;;;;;33.47;15.77;;;;;;;;;;5062475;28;20036;-58
2022/03/05 12:16:20;;;;;;;33.85;16.05;;;;;;;;;;5081751;28;20089;-57
2022/03/05 12:18:48;;;;;;;36.42;16.35;;;;;;;;;;5077892;28;20036;-57
2022/03/05 12:21:19;;;;;;;35.08;17.15;;;;;;;;;;5087421;28;20044;-58
2022/03/05 12:23:45;;;;;;;30.63;15.02;;;;;;;;;;5088061;28;20036;-57
2022/03/05 12:26:12;;;;;;;35.45;16.23;;;;;;;;;;5088361;28;20032;-57
2022/03/05 12:28:42;;;;;;;30.73;15.77;;;;;;;;;;5079492;28;20182;-58
2022/03/05 12:31:18;;;;;;;36.45;16.52;;;;;;;;;;5088719;28;20492;-58
2022/03/05 12:33:48;;;;;;;32.53;16.08;;;;;;;;;;5087464;28;20519;-57
2022/03/05 12:36:15;;;;;;;34.05;16.90;;;;;;;;;;5085215;28;20098;-58
2022/03/05 12:38:41;;;;;;;37.20;16.45;;;;;;;;;;5088640;28;20063;-58
2022/03/05 12:41:07;;;;;;;34.65;16.67;;;;;;;;;;5074213;28;20043;-58
2022/03/05 12:43:33;;;;;;;32.90;17.10;;;;;;;;;;5092306;28;20413;-57
2022/03/05 12:45:59;;;;;;;33.00;16.27;;;;;;;;;;5092236;28;20040;-58
2022/03/05 12:48:25;;;;;;;35.97;17.23;;;;;;;;;;5075152;28;20537;-58
2022/03/05 12:50:52;;;;;;;33.83;17.05;;;;;;;;;;5081917;28;21484;-57
2022/03/05 12:53:19;;;;;;;36.30;17.48;;;;;;;;;;5075296;28;20132;-58
2022/03/05 12:55:45;;;;;;;36.25;17.75;;;;;;;;;;5065487;28;20070;-58
2022/03/05 12:58:25;;;;;;;38.30;18.30;;;;;;;;;;5092716;28;20501;-58
2022/03/05 13:00:52;;;;;;;36.70;16.85;;;;;;;;;;5091422;28;20451;-58
2022/03/05 13:03:18;;;;;;;31.80;17.23;;;;;;;;;;5085792;28;20443;-58
2022/03/05 13:05:45;;;;;;;33.67;16.52;;;;;;;;;;5086548;28;20445;-58
2022/03/05 13:08:21;;;;;;;33.20;16.08;;;;;;;;;;5086576;28;20503;-58
2022/03/05 13:10:48;;;;;;;31.70;16.75;;;;;;;;;;5084383;28;20023;-58
2022/03/05 13:13:15;;;;;;;32.88;16.48;;;;;;;;;;5090178;28;20040;-58
2022/03/05 13:15:42;;;;;;;32.88;15.88;;;;;;;;;;5088321;28;20374;-58
2022/03/05 13:18:16;;;;;;;29.45;15.60;;;;;;;;;;5091199;28;20036;-58
2022/03/05 13:20:43;;;;;;;32.15;16.88;;;;;;;;;;5094380;28;20044;-58
2022/03/05 13:23:09;;;;;;;30.27;15.73;;;;;;;;;;5092690;28;20405;-58
2022/03/05 13:25:39;;;;;;;31.52;14.93;;;;;;;;;;5091460;28;20036;-57
2022/03/05 13:28:05;;;;;;;30.65;15.65;;;;;;;;;;5085396;28;20070;-58
2022/03/05 13:30:31;;;;;;;63.97;17.50;;;;;;;;;;5092218;28;20031;-58
2022/03/05 13:32:57;;;;;;;33.97;16.13;;;;;;;;;;5089756;28;20044;-58
2022/03/05 13:35:27;;;;;;;37.75;18.42;;;;;;;;;;5073906;28;20042;-58
2022/03/05 13:37:54;;;;;;;29.25;15.73;;;;;;;;;;5089431;28;20075;-58
2022/03/05 13:40:20;;;;;;;33.83;16.48;;;;;;;;;;5093434;28;20122;-57
2022/03/05 13:42:46;;;;;;;33.90;15.70;;;;;;;;;;5087969;28;20040;-58
2022/03/05 13:45:15;;;;;;;30.48;15.48;;;;;;;;;;5094452;28;20048;-58
2022/03/05 13:47:48;;;;;;;31.38;16.67;;;;;;;;;;5071365;28;20048;-58
2022/03/05 13:50:15;;;;;;;30.25;15.48;;;;;;;;;;5087695;28;20044;-58
2022/03/05 13:52:51;;;;;;;32.58;15.93;;;;;;;;;;5090433;28;20059;-58
2022/03/05 13:55:18;;;;;;;29.80;15.80;;;;;;;;;;5088168;28;20119;-60
2022/03/05 13:57:45;;;;;;;31.13;14.35;;;;;;;;;;5070661;28;20128;-58
2022/03/05 14:00:12;;;;;;;32.13;15.82;;;;;;;;;;5083209;28;20031;-57
2022/03/05 14:02:38;;;;;;;32.97;16.58;;;;;;;;;;5089602;28;20497;-58
2022/03/05 14:05:12;;;;;;;27.83;15.55;;;;;;;;;;5086717;28;20040;-58
2022/03/05 14:07:39;;;;;;;30.98;15.45;;;;;;;;;;5091166;28;20039;-57
2022/03/05 14:10:05;;;;;;;31.20;15.85;;;;;;;;;;5075437;28;20563;-58
2022/03/05 14:12:31;;;;;;;31.90;15.50;;;;;;;;;;5085863;28;20032;-58
2022/03/05 14:14:59;;;;;;;29.48;15.38;;;;;;;;;;5087073;28;20032;-57
2022/03/05 14:17:33;;;;;;;29.65;15.85;;;;;;;;;;5087713;28;20136;-58
2022/03/05 14:20:03;;;;;;;29.75;15.38;;;;;;;;;;5087118;28;20036;-58
2022/03/05 14:22:34;;;;;;;28.88;15.38;;;;;;;;;;5088987;28;20036;-58
2022/03/05 14:25:00;;;;;;;31.67;15.32;;;;;;;;;;5085878;28;20369;-58